PBH weather

Paro Airport
Paro, Paro, Bhutan

Public forecast

Using degrees Celsius for public forecast. Weather courtesy of forecast.io.

METAR (pilot weather report)

Report is more than 6 hours old.

Retrieved 2019/06/15 09:30 UTC (15 hours ago):

VQPR 150930Z 14014KT 9999 SCT030 SCT080 28/12 Q1010

TAF (pilot weather forecast)

Forecast is more than 12 hours old.

Closest forecast is Bagdogra Airport, 72.9 nm (135.0 km) SW. Retrieved 2019/06/15 12:30 UTC (12 hours ago):

TAF VEBD 150930Z 1512/1524 05010KT 6000 SCT030 SCT100 TEMPO 1515/1518 12010KT 3000 TSRA SCT020 FEW030CB BKN090